sensor_id;sensor_type;location;lat;lon;timestamp;pressure;altitude;pressure_sealevel;temperature;humidity
46241;BME280;31961;52.416;-0.732;2022-12-18T00:01:15;101306.11;;;-0.85;100.00
46241;BME280;31961;52.416;-0.732;2022-12-18T00:03:43;101300.37;;;-1.42;100.00
46241;BME280;31961;52.416;-0.732;2022-12-18T00:06:11;101297.72;;;-2.18;100.00
46241;BME280;31961;52.416;-0.732;2022-12-18T00:08:39;101294.58;;;-2.17;100.00
46241;BME280;31961;52.416;-0.732;2022-12-18T00:11:10;101286.74;;;-2.89;100.00
46241;BME280;31961;52.416;-0.732;2022-12-18T00:13:38;101283.91;;;-2.46;100.00
46241;BME280;31961;52.416;-0.732;2022-12-18T00:16:07;101283.13;;;-2.21;100.00
46241;BME280;31961;52.416;-0.732;2022-12-18T00:18:35;101279.35;;;-2.05;100.00
46241;BME280;31961;52.416;-0.732;2022-12-18T00:21:04;101272.27;;;-1.50;100.00
46241;BME280;31961;52.416;-0.732;2022-12-18T00:23:33;101265.36;;;-1.09;100.00
46241;BME280;31961;52.416;-0.732;2022-12-18T00:26:01;101266.07;;;-1.80;100.00
46241;BME280;31961;52.416;-0.732;2022-12-18T00:28:28;101266.33;;;-1.24;100.00
46241;BME280;31961;52.416;-0.732;2022-12-18T00:31:00;101269.35;;;-1.46;100.00
46241;BME280;31961;52.416;-0.732;2022-12-18T00:33:27;101273.87;;;-1.61;100.00
46241;BME280;31961;52.416;-0.732;2022-12-18T00:35:54;101276.24;;;-2.42;100.00
46241;BME280;31961;52.416;-0.732;2022-12-18T00:38:27;101277.94;;;-1.97;100.00
46241;BME280;31961;52.416;-0.732;2022-12-18T00:40:54;101288.51;;;-1.95;100.00
46241;BME280;31961;52.416;-0.732;2022-12-18T00:43:21;101284.77;;;-1.77;100.00
46241;BME280;31961;52.416;-0.732;2022-12-18T00:45:48;101278.16;;;-0.97;100.00
46241;BME280;31961;52.416;-0.732;2022-12-18T00:48:16;101277.19;;;-0.74;100.00
46241;BME280;31961;52.416;-0.732;2022-12-18T00:50:43;101270.70;;;-0.96;100.00
46241;BME280;31961;52.416;-0.732;2022-12-18T00:53:11;101260.54;;;-1.27;100.00
46241;BME280;31961;52.416;-0.732;2022-12-18T00:55:39;101260.23;;;-1.02;100.00
46241;BME280;31961;52.416;-0.732;2022-12-18T00:58:07;101258.87;;;-1.20;100.00
46241;BME280;31961;52.416;-0.732;2022-12-18T01:00:35;101263.58;;;-1.18;100.00
46241;BME280;31961;52.416;-0.732;2022-12-18T01:03:03;101253.54;;;-1.50;100.00
46241;BME280;31961;52.416;-0.732;2022-12-18T01:05:31;101255.20;;;-1.06;100.00
46241;BME280;31961;52.416;-0.732;2022-12-18T01:07:59;101252.91;;;-0.93;100.00
46241;BME280;31961;52.416;-0.732;2022-12-18T01:10:26;101253.32;;;-0.87;100.00
46241;BME280;31961;52.416;-0.732;2022-12-18T01:12:54;101258.35;;;-0.64;100.00
46241;BME280;31961;52.416;-0.732;2022-12-18T01:15:22;101257.51;;;-0.66;100.00
46241;BME280;31961;52.416;-0.732;2022-12-18T01:17:52;101257.02;;;-0.42;100.00
46241;BME280;31961;52.416;-0.732;2022-12-18T01:20:19;101258.46;;;-1.14;100.00
46241;BME280;31961;52.416;-0.732;2022-12-18T01:22:47;101252.71;;;-0.35;100.00
46241;BME280;31961;52.416;-0.732;2022-12-18T01:25:14;101247.38;;;-0.45;100.00
46241;BME280;31961;52.416;-0.732;2022-12-18T01:27:42;101243.68;;;-0.29;100.00
46241;BME280;31961;52.416;-0.732;2022-12-18T01:30:11;101240.52;;;-0.44;100.00
46241;BME280;31961;52.416;-0.732;2022-12-18T01:32:38;101242.89;;;-0.60;100.00
46241;BME280;31961;52.416;-0.732;2022-12-18T01:35:07;101241.87;;;-0.41;100.00
46241;BME280;31961;52.416;-0.732;2022-12-18T01:37:33;101240.98;;;-0.45;100.00
46241;BME280;31961;52.416;-0.732;2022-12-18T01:40:00;101234.81;;;-0.30;100.00
46241;BME280;31961;52.416;-0.732;2022-12-18T01:42:28;101233.55;;;-0.35;100.00
46241;BME280;31961;52.416;-0.732;2022-12-18T01:44:58;101229.52;;;-0.28;100.00
46241;BME280;31961;52.416;-0.732;2022-12-18T01:47:30;101229.36;;;-0.45;100.00
46241;BME280;31961;52.416;-0.732;2022-12-18T01:50:02;101225.48;;;-0.47;100.00
46241;BME280;31961;52.416;-0.732;2022-12-18T01:52:31;101230.38;;;-0.79;100.00
46241;BME280;31961;52.416;-0.732;2022-12-18T01:55:00;101228.99;;;-0.66;100.00
46241;BME280;31961;52.416;-0.732;2022-12-18T01:57:29;101228.73;;;-0.81;100.00
46241;BME280;31961;52.416;-0.732;2022-12-18T02:00:00;101233.41;;;-0.61;100.00
46241;BME280;31961;52.416;-0.732;2022-12-18T02:02:29;101234.81;;;-0.96;99.79
46241;BME280;31961;52.416;-0.732;2022-12-18T02:04:56;101237.84;;;-0.96;100.00
46241;BME280;31961;52.416;-0.732;2022-12-18T02:07:31;101236.35;;;-0.93;100.00
46241;BME280;31961;52.416;-0.732;2022-12-18T02:10:06;101235.53;;;-0.92;100.00
46241;BME280;31961;52.416;-0.732;2022-12-18T02:12:42;101236.47;;;-0.97;100.00
46241;BME280;31961;52.416;-0.732;2022-12-18T02:15:17;101243.01;;;-1.14;100.00
46241;BME280;31961;52.416;-0.732;2022-12-18T02:17:52;101248.66;;;-3.30;100.00
46241;BME280;31961;52.416;-0.732;2022-12-18T02:20:25;101245.71;;;-1.74;100.00
46241;BME280;31961;52.416;-0.732;2022-12-18T02:23:06;101241.54;;;-1.62;100.00
46241;BME280;31961;52.416;-0.732;2022-12-18T02:25:58;101247.21;;;-1.77;100.00
46241;BME280;31961;52.416;-0.732;2022-12-18T02:28:32;101253.39;;;-1.70;97.83
46241;BME280;31961;52.416;-0.732;2022-12-18T02:31:04;101250.93;;;-1.51;97.90
46241;BME280;31961;52.416;-0.732;2022-12-18T02:33:33;101252.01;;;-1.40;97.90
46241;BME280;31961;52.416;-0.732;2022-12-18T02:36:03;101258.95;;;-2.12;97.50
46241;BME280;31961;52.416;-0.732;2022-12-18T02:38:32;101261.75;;;-1.47;96.85
46241;BME280;31961;52.416;-0.732;2022-12-18T02:41:00;101264.39;;;-1.49;95.58
46241;BME280;31961;52.416;-0.732;2022-12-18T02:43:30;101260.54;;;-1.58;95.60
46241;BME280;31961;52.416;-0.732;2022-12-18T02:45:59;101258.46;;;-1.62;96.13
46241;BME280;31961;52.416;-0.732;2022-12-18T02:48:29;101267.77;;;-1.83;98.77
46241;BME280;31961;52.416;-0.732;2022-12-18T02:51:02;101266.31;;;-1.82;97.75
46241;BME280;31961;52.416;-0.732;2022-12-18T02:53:38;101270.15;;;-2.04;98.49
46241;BME280;31961;52.416;-0.732;2022-12-18T02:56:15;101270.95;;;-1.86;95.39
46241;BME280;31961;52.416;-0.732;2022-12-18T02:58:52;101275.96;;;-2.08;93.14
46241;BME280;31961;52.416;-0.732;2022-12-18T03:01:28;101275.57;;;-1.79;93.20
46241;BME280;31961;52.416;-0.732;2022-12-18T03:04:01;101267.01;;;-1.83;91.89
46241;BME280;31961;52.416;-0.732;2022-12-18T03:06:33;101263.46;;;-1.64;92.45
46241;BME280;31961;52.416;-0.732;2022-12-18T03:09:10;101258.96;;;-1.60;93.11
46241;BME280;31961;52.416;-0.732;2022-12-18T03:11:42;101256.81;;;-2.33;95.59
46241;BME280;31961;52.416;-0.732;2022-12-18T03:14:14;101245.83;;;-1.86;91.90
46241;BME280;31961;52.416;-0.732;2022-12-18T03:16:43;101246.23;;;-2.57;100.00
46241;BME280;31961;52.416;-0.732;2022-12-18T03:19:15;101244.13;;;-2.13;94.49
46241;BME280;31961;52.416;-0.732;2022-12-18T03:21:45;101241.36;;;-3.11;100.00
46241;BME280;31961;52.416;-0.732;2022-12-18T03:24:15;101243.22;;;-3.03;100.00
46241;BME280;31961;52.416;-0.732;2022-12-18T03:26:46;101233.29;;;-2.91;100.00
46241;BME280;31961;52.416;-0.732;2022-12-18T03:29:19;101240.20;;;-2.64;100.00
46241;BME280;31961;52.416;-0.732;2022-12-18T03:31:53;101235.96;;;-1.77;99.16
46241;BME280;31961;52.416;-0.732;2022-12-18T03:34:25;101236.60;;;-2.24;100.00
46241;BME280;31961;52.416;-0.732;2022-12-18T03:36:54;101242.77;;;-2.24;100.00
46241;BME280;31961;52.416;-0.732;2022-12-18T03:39:21;101236.28;;;-1.72;100.00
46241;BME280;31961;52.416;-0.732;2022-12-18T03:41:52;101235.49;;;-2.13;100.00
46241;BME280;31961;52.416;-0.732;2022-12-18T03:44:28;101232.26;;;-2.33;100.00
46241;BME280;31961;52.416;-0.732;2022-12-18T03:47:01;101226.15;;;-2.96;100.00
46241;BME280;31961;52.416;-0.732;2022-12-18T03:49:37;101222.79;;;-3.14;100.00
46241;BME280;31961;52.416;-0.732;2022-12-18T03:52:09;101220.25;;;-2.36;100.00
46241;BME280;31961;52.416;-0.732;2022-12-18T03:54:39;101207.83;;;-2.30;100.00
46241;BME280;31961;52.416;-0.732;2022-12-18T03:57:13;101207.09;;;-2.59;100.00
46241;BME280;31961;52.416;-0.732;2022-12-18T03:59:43;101199.17;;;-2.99;100.00
46241;BME280;31961;52.416;-0.732;2022-12-18T04:02:12;101189.43;;;-2.44;100.00
46241;BME280;31961;52.416;-0.732;2022-12-18T04:04:41;101195.76;;;-2.76;100.00
46241;BME280;31961;52.416;-0.732;2022-12-18T04:07:09;101193.55;;;-2.65;100.00
46241;BME280;31961;52.416;-0.732;2022-12-18T04:09:39;101193.75;;;-3.02;100.00
46241;BME280;31961;52.416;-0.732;2022-12-18T04:12:08;101188.29;;;-2.02;100.00
46241;BME280;31961;52.416;-0.732;2022-12-18T04:14:36;101186.15;;;-2.53;100.00
46241;BME280;31961;52.416;-0.732;2022-12-18T04:17:03;101181.30;;;-2.47;100.00
46241;BME280;31961;52.416;-0.732;2022-12-18T04:19:31;101175.79;;;-2.37;100.00
46241;BME280;31961;52.416;-0.732;2022-12-18T04:21:59;101173.52;;;-3.04;100.00
46241;BME280;31961;52.416;-0.732;2022-12-18T04:24:25;101163.06;;;-2.22;100.00
46241;BME280;31961;52.416;-0.732;2022-12-18T04:26:52;101159.40;;;-2.88;100.00
46241;BME280;31961;52.416;-0.732;2022-12-18T04:29:20;101156.72;;;-3.32;100.00
46241;BME280;31961;52.416;-0.732;2022-12-18T04:31:47;101159.19;;;-3.13;100.00
46241;BME280;31961;52.416;-0.732;2022-12-18T04:34:14;101157.92;;;-3.39;100.00
46241;BME280;31961;52.416;-0.732;2022-12-18T04:36:41;101159.28;;;-3.75;100.00
46241;BME280;31961;52.416;-0.732;2022-12-18T04:39:08;101153.75;;;-4.25;100.00
46241;BME280;31961;52.416;-0.732;2022-12-18T04:41:35;101146.70;;;-3.35;100.00
46241;BME280;31961;52.416;-0.732;2022-12-18T04:44:03;101142.75;;;-3.53;100.00
46241;BME280;31961;52.416;-0.732;2022-12-18T04:46:30;101138.69;;;-3.26;100.00
46241;BME280;31961;52.416;-0.732;2022-12-18T04:48:58;101137.56;;;-2.70;100.00
46241;BME280;31961;52.416;-0.732;2022-12-18T04:51:25;101135.11;;;-2.42;100.00
46241;BME280;31961;52.416;-0.732;2022-12-18T04:53:53;101135.57;;;-2.34;100.00
46241;BME280;31961;52.416;-0.732;2022-12-18T04:56:21;101133.25;;;-2.53;100.00
46241;BME280;31961;52.416;-0.732;2022-12-18T04:58:47;101137.28;;;-3.10;100.00
46241;BME280;31961;52.416;-0.732;2022-12-18T05:01:16;101135.60;;;-2.82;100.00
46241;BME280;31961;52.416;-0.732;2022-12-18T05:03:43;101126.78;;;-2.73;100.00
46241;BME280;31961;52.416;-0.732;2022-12-18T05:06:11;101120.80;;;-3.33;100.00
46241;BME280;31961;52.416;-0.732;2022-12-18T05:08:39;101108.31;;;-3.01;100.00
46241;BME280;31961;52.416;-0.732;2022-12-18T05:11:08;101091.93;;;-3.03;100.00
46241;BME280;31961;52.416;-0.732;2022-12-18T05:13:36;101085.01;;;-3.42;100.00
46241;BME280;31961;52.416;-0.732;2022-12-18T05:16:04;101077.66;;;-3.66;100.00
46241;BME280;31961;52.416;-0.732;2022-12-18T05:18:31;101071.17;;;-2.66;100.00
46241;BME280;31961;52.416;-0.732;2022-12-18T05:21:00;101064.26;;;-3.05;100.00
46241;BME280;31961;52.416;-0.732;2022-12-18T05:23:27;101052.34;;;-2.27;100.00
46241;BME280;31961;52.416;-0.732;2022-12-18T05:25:56;101041.44;;;-2.56;100.00
46241;BME280;31961;52.416;-0.732;2022-12-18T05:28:25;101036.05;;;-2.91;100.00
46241;BME280;31961;52.416;-0.732;2022-12-18T05:30:54;101032.78;;;-2.92;100.00
46241;BME280;31961;52.416;-0.732;2022-12-18T05:33:23;101038.46;;;-2.69;100.00
46241;BME280;31961;52.416;-0.732;2022-12-18T05:35:52;101038.53;;;-2.73;100.00
46241;BME280;31961;52.416;-0.732;2022-12-18T05:38:20;101031.28;;;-2.69;100.00
46241;BME280;31961;52.416;-0.732;2022-12-18T05:40:48;101029.64;;;-2.78;100.00
46241;BME280;31961;52.416;-0.732;2022-12-18T05:43:15;101031.95;;;-2.83;100.00
46241;BME280;31961;52.416;-0.732;2022-12-18T05:45:43;101037.44;;;-3.28;100.00
46241;BME280;31961;52.416;-0.732;2022-12-18T05:48:12;101050.53;;;-3.28;100.00
46241;BME280;31961;52.416;-0.732;2022-12-18T05:50:43;101041.64;;;-2.97;100.00
46241;BME280;31961;52.416;-0.732;2022-12-18T05:53:11;101031.15;;;-2.49;100.00
46241;BME280;31961;52.416;-0.732;2022-12-18T05:55:41;101031.97;;;-2.10;100.00
46241;BME280;31961;52.416;-0.732;2022-12-18T05:58:10;101037.47;;;-1.95;100.00
46241;BME280;31961;52.416;-0.732;2022-12-18T06:00:41;101048.44;;;-1.84;100.00
46241;BME280;31961;52.416;-0.732;2022-12-18T06:03:10;101050.67;;;-1.65;100.00
46241;BME280;31961;52.416;-0.732;2022-12-18T06:05:40;101045.40;;;-1.48;100.00
46241;BME280;31961;52.416;-0.732;2022-12-18T06:08:08;101028.71;;;-1.69;100.00
46241;BME280;31961;52.416;-0.732;2022-12-18T06:10:35;101022.79;;;-2.31;100.00
46241;BME280;31961;52.416;-0.732;2022-12-18T06:13:02;101025.50;;;-1.96;100.00
46241;BME280;31961;52.416;-0.732;2022-12-18T06:15:29;101021.24;;;-2.29;100.00
46241;BME280;31961;52.416;-0.732;2022-12-18T06:17:57;101023.79;;;-2.18;100.00
46241;BME280;31961;52.416;-0.732;2022-12-18T06:20:24;101015.45;;;-2.86;100.00
46241;BME280;31961;52.416;-0.732;2022-12-18T06:22:52;101009.13;;;-2.47;100.00
46241;BME280;31961;52.416;-0.732;2022-12-18T06:25:19;101009.64;;;-3.07;100.00
46241;BME280;31961;52.416;-0.732;2022-12-18T06:27:47;101004.38;;;-3.14;100.00
46241;BME280;31961;52.416;-0.732;2022-12-18T06:30:15;101003.12;;;-2.57;100.00
46241;BME280;31961;52.416;-0.732;2022-12-18T06:32:42;101010.77;;;-3.25;100.00
46241;BME280;31961;52.416;-0.732;2022-12-18T06:35:09;101003.71;;;-3.18;100.00
46241;BME280;31961;52.416;-0.732;2022-12-18T06:37:37;101004.25;;;-2.91;100.00
46241;BME280;31961;52.416;-0.732;2022-12-18T06:40:05;100999.98;;;-2.60;100.00
46241;BME280;31961;52.416;-0.732;2022-12-18T06:42:33;100992.65;;;-2.75;100.00
46241;BME280;31961;52.416;-0.732;2022-12-18T06:45:00;100997.20;;;-2.81;100.00
46241;BME280;31961;52.416;-0.732;2022-12-18T06:47:27;101000.87;;;-3.27;100.00
46241;BME280;31961;52.416;-0.732;2022-12-18T06:49:54;101012.04;;;-2.50;100.00
46241;BME280;31961;52.416;-0.732;2022-12-18T06:52:22;101018.91;;;-2.51;100.00
46241;BME280;31961;52.416;-0.732;2022-12-18T06:54:49;101018.13;;;-2.00;100.00
46241;BME280;31961;52.416;-0.732;2022-12-18T06:57:16;101024.54;;;-1.50;100.00
46241;BME280;31961;52.416;-0.732;2022-12-18T06:59:43;101026.68;;;-1.29;100.00
46241;BME280;31961;52.416;-0.732;2022-12-18T07:02:11;101023.40;;;-1.47;100.00
46241;BME280;31961;52.416;-0.732;2022-12-18T07:04:38;101014.94;;;-1.27;100.00
46241;BME280;31961;52.416;-0.732;2022-12-18T07:07:05;101011.42;;;-1.25;100.00
46241;BME280;31961;52.416;-0.732;2022-12-18T07:09:33;101011.15;;;-1.96;100.00
46241;BME280;31961;52.416;-0.732;2022-12-18T07:12:00;101009.62;;;-1.53;100.00
46241;BME280;31961;52.416;-0.732;2022-12-18T07:14:28;100999.96;;;-1.14;100.00
46241;BME280;31961;52.416;-0.732;2022-12-18T07:16:55;100989.20;;;-1.83;100.00
46241;BME280;31961;52.416;-0.732;2022-12-18T07:19:22;100984.18;;;-1.24;100.00
46241;BME280;31961;52.416;-0.732;2022-12-18T07:21:50;100981.80;;;-1.85;100.00
46241;BME280;31961;52.416;-0.732;2022-12-18T07:24:18;100970.09;;;-2.04;100.00
46241;BME280;31961;52.416;-0.732;2022-12-18T07:26:46;100962.09;;;-2.11;100.00
46241;BME280;31961;52.416;-0.732;2022-12-18T07:29:13;100959.96;;;-1.89;100.00
46241;BME280;31961;52.416;-0.732;2022-12-18T07:31:40;100947.63;;;-2.06;100.00
46241;BME280;31961;52.416;-0.732;2022-12-18T07:34:10;100936.45;;;-1.74;100.00
46241;BME280;31961;52.416;-0.732;2022-12-18T07:36:38;100940.62;;;-1.60;100.00
46241;BME280;31961;52.416;-0.732;2022-12-18T07:39:05;100945.97;;;-2.05;100.00
46241;BME280;31961;52.416;-0.732;2022-12-18T07:41:32;100940.52;;;-1.78;100.00
46241;BME280;31961;52.416;-0.732;2022-12-18T07:44:00;100951.86;;;-2.05;100.00
46241;BME280;31961;52.416;-0.732;2022-12-18T07:46:27;100951.06;;;-1.38;100.00
46241;BME280;31961;52.416;-0.732;2022-12-18T07:48:55;100947.72;;;-1.71;100.00
46241;BME280;31961;52.416;-0.732;2022-12-18T07:51:22;100947.04;;;-1.64;100.00
46241;BME280;31961;52.416;-0.732;2022-12-18T07:53:49;100943.61;;;-1.91;100.00
46241;BME280;31961;52.416;-0.732;2022-12-18T07:56:16;100939.37;;;-2.27;100.00
46241;BME280;31961;52.416;-0.732;2022-12-18T07:58:44;100941.70;;;-1.82;100.00
46241;BME280;31961;52.416;-0.732;2022-12-18T08:01:12;100937.27;;;-1.41;100.00
46241;BME280;31961;52.416;-0.732;2022-12-18T08:03:40;100939.88;;;-1.88;100.00
46241;BME280;31961;52.416;-0.732;2022-12-18T08:06:09;100940.91;;;-1.49;100.00
46241;BME280;31961;52.416;-0.732;2022-12-18T08:08:37;100953.25;;;-1.50;100.00
46241;BME280;31961;52.416;-0.732;2022-12-18T08:11:04;100953.28;;;-1.77;100.00
46241;BME280;31961;52.416;-0.732;2022-12-18T08:13:32;100960.42;;;-1.50;100.00
46241;BME280;31961;52.416;-0.732;2022-12-18T08:16:01;100965.40;;;-1.49;100.00
46241;BME280;31961;52.416;-0.732;2022-12-18T08:18:29;100972.76;;;-1.50;100.00
46241;BME280;31961;52.416;-0.732;2022-12-18T08:20:56;100972.68;;;-1.47;100.00
46241;BME280;31961;52.416;-0.732;2022-12-18T08:23:23;100974.01;;;-1.65;100.00
46241;BME280;31961;52.416;-0.732;2022-12-18T08:25:50;100969.54;;;-1.89;100.00
46241;BME280;31961;52.416;-0.732;2022-12-18T08:28:18;100964.15;;;-1.34;100.00
46241;BME280;31961;52.416;-0.732;2022-12-18T08:30:45;100956.92;;;-1.60;100.00
46241;BME280;31961;52.416;-0.732;2022-12-18T08:33:12;100952.93;;;-1.25;100.00
46241;BME280;31961;52.416;-0.732;2022-12-18T08:35:39;100965.32;;;-2.40;100.00
46241;BME280;31961;52.416;-0.732;2022-12-18T08:38:07;100955.71;;;-1.45;100.00
46241;BME280;31961;52.416;-0.732;2022-12-18T08:40:34;100957.94;;;-0.90;100.00
46241;BME280;31961;52.416;-0.732;2022-12-18T08:43:01;100961.30;;;-0.51;100.00
46241;BME280;31961;52.416;-0.732;2022-12-18T08:45:28;100959.08;;;0.05;100.00
46241;BME280;31961;52.416;-0.732;2022-12-18T08:47:56;100966.64;;;-0.49;100.00
46241;BME280;31961;52.416;-0.732;2022-12-18T08:50:23;100949.95;;;-0.62;100.00
46241;BME280;31961;52.416;-0.732;2022-12-18T08:52:50;100951.43;;;-0.66;100.00
46241;BME280;31961;52.416;-0.732;2022-12-18T08:55:18;100950.33;;;-0.03;100.00
46241;BME280;31961;52.416;-0.732;2022-12-18T08:57:48;100935.17;;;0.45;100.00
46241;BME280;31961;52.416;-0.732;2022-12-18T09:00:16;100943.07;;;0.33;100.00
46241;BME280;31961;52.416;-0.732;2022-12-18T09:02:43;100937.99;;;-0.18;100.00
46241;BME280;31961;52.416;-0.732;2022-12-18T09:05:10;100927.97;;;-0.55;100.00
46241;BME280;31961;52.416;-0.732;2022-12-18T09:07:38;100923.26;;;-1.07;100.00
46241;BME280;31961;52.416;-0.732;2022-12-18T09:10:06;100919.54;;;-0.94;100.00
46241;BME280;31961;52.416;-0.732;2022-12-18T09:12:33;100925.44;;;-0.39;100.00
46241;BME280;31961;52.416;-0.732;2022-12-18T09:15:00;100914.10;;;-0.72;100.00
46241;BME280;31961;52.416;-0.732;2022-12-18T09:17:28;100871.12;;;-0.16;100.00
46241;BME280;31961;52.416;-0.732;2022-12-18T09:19:56;100898.42;;;-0.86;100.00
46241;BME280;31961;52.416;-0.732;2022-12-18T09:22:22;100913.89;;;-0.86;100.00
46241;BME280;31961;52.416;-0.732;2022-12-18T09:24:50;100916.83;;;-1.46;100.00
46241;BME280;31961;52.416;-0.732;2022-12-18T09:27:17;100908.23;;;-0.48;100.00
46241;BME280;31961;52.416;-0.732;2022-12-18T09:29:45;100904.26;;;-0.87;100.00
46241;BME280;31961;52.416;-0.732;2022-12-18T09:32:12;100902.44;;;-0.90;100.00
46241;BME280;31961;52.416;-0.732;2022-12-18T09:34:40;100909.70;;;-1.06;100.00
46241;BME280;31961;52.416;-0.732;2022-12-18T09:37:07;100907.88;;;-0.91;100.00
46241;BME280;31961;52.416;-0.732;2022-12-18T09:39:33;100905.83;;;-0.82;100.00
46241;BME280;31961;52.416;-0.732;2022-12-18T09:42:01;100911.98;;;-0.38;100.00
46241;BME280;31961;52.416;-0.732;2022-12-18T09:44:32;100900.83;;;-0.55;100.00
46241;BME280;31961;52.416;-0.732;2022-12-18T09:47:05;100892.37;;;-0.73;100.00
46241;BME280;31961;52.416;-0.732;2022-12-18T09:49:38;100889.53;;;-0.84;100.00
46241;BME280;31961;52.416;-0.732;2022-12-18T09:52:14;100893.08;;;0.02;100.00
46241;BME280;31961;52.416;-0.732;2022-12-18T09:54:46;100890.08;;;-0.53;100.00
46241;BME280;31961;52.416;-0.732;2022-12-18T09:57:18;100891.02;;;-0.46;100.00
46241;BME280;31961;52.416;-0.732;2022-12-18T09:59:51;100898.66;;;-0.71;100.00
46241;BME280;31961;52.416;-0.732;2022-12-18T10:02:21;100894.97;;;-0.91;100.00
46241;BME280;31961;52.416;-0.732;2022-12-18T10:05:03;100899.18;;;-0.63;100.00
46241;BME280;31961;52.416;-0.732;2022-12-18T10:07:38;100898.47;;;-0.12;100.00
46241;BME280;31961;52.416;-0.732;2022-12-18T10:10:16;100887.88;;;-1.33;100.00
46241;BME280;31961;52.416;-0.732;2022-12-18T10:12:52;100876.83;;;-0.17;100.00
46241;BME280;31961;52.416;-0.732;2022-12-18T10:15:27;100873.88;;;-1.41;100.00
46241;BME280;31961;52.416;-0.732;2022-12-18T10:18:02;100864.08;;;-0.77;100.00
46241;BME280;31961;52.416;-0.732;2022-12-18T10:20:40;100855.01;;;-0.37;100.00
46241;BME280;31961;52.416;-0.732;2022-12-18T10:23:17;100850.15;;;-0.53;100.00
46241;BME280;31961;52.416;-0.732;2022-12-18T10:25:52;100835.53;;;-1.00;100.00
46241;BME280;31961;52.416;-0.732;2022-12-18T10:28:21;100825.10;;;-0.95;100.00
46241;BME280;31961;52.416;-0.732;2022-12-18T10:30:50;100828.72;;;-1.41;100.00
46241;BME280;31961;52.416;-0.732;2022-12-18T10:33:20;100827.73;;;-1.10;100.00
46241;BME280;31961;52.416;-0.732;2022-12-18T10:35:50;100823.90;;;-1.72;100.00
46241;BME280;31961;52.416;-0.732;2022-12-18T10:38:24;100819.58;;;-0.59;100.00
46241;BME280;31961;52.416;-0.732;2022-12-18T10:40:54;100807.92;;;-0.49;100.00
46241;BME280;31961;52.416;-0.732;2022-12-18T10:43:25;100806.08;;;-0.64;100.00
46241;BME280;31961;52.416;-0.732;2022-12-18T10:46:04;100804.94;;;-0.37;100.00
46241;BME280;31961;52.416;-0.732;2022-12-18T10:48:34;100800.91;;;-0.50;100.00
46241;BME280;31961;52.416;-0.732;2022-12-18T10:51:03;100791.53;;;-0.76;100.00
46241;BME280;31961;52.416;-0.732;2022-12-18T10:53:31;100783.86;;;-0.72;100.00
46241;BME280;31961;52.416;-0.732;2022-12-18T10:56:03;100772.87;;;-0.81;100.00
46241;BME280;31961;52.416;-0.732;2022-12-18T10:58:32;100774.89;;;-0.97;100.00
46241;BME280;31961;52.416;-0.732;2022-12-18T11:01:06;100763.88;;;-0.86;100.00
46241;BME280;31961;52.416;-0.732;2022-12-18T11:03:36;100752.25;;;-0.85;100.00
46241;BME280;31961;52.416;-0.732;2022-12-18T11:06:07;100756.57;;;-1.03;100.00
46241;BME280;31961;52.416;-0.732;2022-12-18T11:08:36;100750.18;;;-0.70;100.00
46241;BME280;31961;52.416;-0.732;2022-12-18T11:11:06;100741.97;;;-0.11;100.00
46241;BME280;31961;52.416;-0.732;2022-12-18T11:13:34;100735.90;;;-0.88;100.00
46241;BME280;31961;52.416;-0.732;2022-12-18T11:16:02;100728.63;;;-0.33;100.00
46241;BME280;31961;52.416;-0.732;2022-12-18T11:18:32;100712.51;;;-0.87;100.00
46241;BME280;31961;52.416;-0.732;2022-12-18T11:21:05;100697.44;;;-0.86;100.00
46241;BME280;31961;52.416;-0.732;2022-12-18T11:23:34;100691.00;;;-0.81;100.00
46241;BME280;31961;52.416;-0.732;2022-12-18T11:26:03;100689.67;;;-0.46;100.00
46241;BME280;31961;52.416;-0.732;2022-12-18T11:28:40;100686.08;;;-0.73;100.00
46241;BME280;31961;52.416;-0.732;2022-12-18T11:31:18;100691.96;;;-1.44;100.00
46241;BME280;31961;52.416;-0.732;2022-12-18T11:33:53;100686.69;;;-1.16;100.00
46241;BME280;31961;52.416;-0.732;2022-12-18T11:36:21;100681.53;;;-1.09;100.00
46241;BME280;31961;52.416;-0.732;2022-12-18T11:38:51;100678.16;;;-0.76;100.00
46241;BME280;31961;52.416;-0.732;2022-12-18T11:41:25;100664.76;;;-1.42;100.00
46241;BME280;31961;52.416;-0.732;2022-12-18T11:43:58;100664.71;;;-0.86;100.00
46241;BME280;31961;52.416;-0.732;2022-12-18T11:46:30;100649.21;;;-0.92;100.00
46241;BME280;31961;52.416;-0.732;2022-12-18T11:49:07;100640.07;;;-1.17;100.00
46241;BME280;31961;52.416;-0.732;2022-12-18T17:13:42;100066.61;;;0.62;100.00
46241;BME280;31961;52.416;-0.732;2022-12-18T17:16:10;100062.51;;;1.49;100.00
46241;BME280;31961;52.416;-0.732;2022-12-18T17:18:37;100060.02;;;1.36;100.00
46241;BME280;31961;52.416;-0.732;2022-12-18T17:21:05;100062.99;;;0.33;100.00
46241;BME280;31961;52.416;-0.732;2022-12-18T17:23:32;100066.56;;;0.44;100.00
46241;BME280;31961;52.416;-0.732;2022-12-18T17:26:00;100064.53;;;0.63;100.00
46241;BME280;31961;52.416;-0.732;2022-12-18T17:28:28;100061.25;;;0.57;100.00
46241;BME280;31961;52.416;-0.732;2022-12-18T17:30:56;100067.09;;;0.97;100.00
46241;BME280;31961;52.416;-0.732;2022-12-18T17:33:23;100063.26;;;0.82;100.00
46241;BME280;31961;52.416;-0.732;2022-12-18T17:35:50;100064.68;;;1.01;100.00
46241;BME280;31961;52.416;-0.732;2022-12-18T17:38:17;100060.39;;;0.69;100.00
46241;BME280;31961;52.416;-0.732;2022-12-18T17:40:45;100058.60;;;1.52;100.00
46241;BME280;31961;52.416;-0.732;2022-12-18T17:43:12;100054.12;;;0.64;100.00
46241;BME280;31961;52.416;-0.732;2022-12-18T17:45:39;100048.51;;;1.67;100.00
46241;BME280;31961;52.416;-0.732;2022-12-18T17:48:08;100046.01;;;1.45;100.00
46241;BME280;31961;52.416;-0.732;2022-12-18T17:50:36;100044.93;;;0.84;100.00
46241;BME280;31961;52.416;-0.732;2022-12-18T17:53:03;100039.82;;;1.22;100.00
46241;BME280;31961;52.416;-0.732;2022-12-18T17:55:31;100036.53;;;1.39;100.00
46241;BME280;31961;52.416;-0.732;2022-12-18T17:57:58;100036.75;;;1.52;100.00
46241;BME280;31961;52.416;-0.732;2022-12-18T18:00:25;100034.43;;;1.48;100.00
46241;BME280;31961;52.416;-0.732;2022-12-18T18:02:52;100028.50;;;1.52;100.00